sensor_id;sensor_type;location;lat;lon;timestamp;P1;durP1;ratioP1;P2;durP2;ratioP2
50012;SDS011;35901;48.694;9.476;2024-01-15T00:02:24;51.80;;;23.30;;
50012;SDS011;35901;48.694;9.476;2024-01-15T00:04:50;48.13;;;22.70;;
50012;SDS011;35901;48.694;9.476;2024-01-15T00:07:15;45.27;;;20.87;;
50012;SDS011;35901;48.694;9.476;2024-01-15T00:09:41;45.73;;;21.30;;
50012;SDS011;35901;48.694;9.476;2024-01-15T00:12:06;49.83;;;22.00;;
50012;SDS011;35901;48.694;9.476;2024-01-15T00:14:32;45.17;;;21.60;;
50012;SDS011;35901;48.694;9.476;2024-01-15T00:16:58;46.50;;;21.57;;
50012;SDS011;35901;48.694;9.476;2024-01-15T00:19:23;42.63;;;21.23;;
50012;SDS011;35901;48.694;9.476;2024-01-15T00:21:49;44.83;;;21.00;;
50012;SDS011;35901;48.694;9.476;2024-01-15T00:24:15;44.57;;;20.63;;
50012;SDS011;35901;48.694;9.476;2024-01-15T00:26:41;42.60;;;20.60;;
50012;SDS011;35901;48.694;9.476;2024-01-15T00:29:07;44.03;;;20.93;;
50012;SDS011;35901;48.694;9.476;2024-01-15T00:31:33;41.67;;;20.10;;
50012;SDS011;35901;48.694;9.476;2024-01-15T00:33:59;38.90;;;18.70;;
50012;SDS011;35901;48.694;9.476;2024-01-15T00:36:25;45.07;;;21.20;;
50012;SDS011;35901;48.694;9.476;2024-01-15T00:38:52;42.90;;;20.27;;
50012;SDS011;35901;48.694;9.476;2024-01-15T00:41:18;40.40;;;18.90;;
50012;SDS011;35901;48.694;9.476;2024-01-15T00:43:47;41.10;;;19.33;;
50012;SDS011;35901;48.694;9.476;2024-01-15T00:46:16;38.27;;;18.30;;
50012;SDS011;35901;48.694;9.476;2024-01-15T00:48:42;37.90;;;18.43;;
50012;SDS011;35901;48.694;9.476;2024-01-15T00:51:08;36.60;;;17.87;;
50012;SDS011;35901;48.694;9.476;2024-01-15T00:53:33;34.33;;;17.00;;
50012;SDS011;35901;48.694;9.476;2024-01-15T00:55:59;34.37;;;17.53;;
50012;SDS011;35901;48.694;9.476;2024-01-15T00:58:25;31.47;;;16.77;;
50012;SDS011;35901;48.694;9.476;2024-01-15T01:00:51;33.47;;;16.57;;
50012;SDS011;35901;48.694;9.476;2024-01-15T01:03:20;33.73;;;17.13;;
50012;SDS011;35901;48.694;9.476;2024-01-15T01:05:48;32.40;;;16.40;;
50012;SDS011;35901;48.694;9.476;2024-01-15T01:08:14;29.37;;;15.47;;
50012;SDS011;35901;48.694;9.476;2024-01-15T01:10:41;31.47;;;15.83;;
50012;SDS011;35901;48.694;9.476;2024-01-15T01:13:08;32.03;;;15.77;;
50012;SDS011;35901;48.694;9.476;2024-01-15T01:15:34;32.97;;;16.23;;
50012;SDS011;35901;48.694;9.476;2024-01-15T01:17:59;33.60;;;15.53;;
50012;SDS011;35901;48.694;9.476;2024-01-15T01:20:25;35.07;;;16.50;;
50012;SDS011;35901;48.694;9.476;2024-01-15T01:22:51;29.63;;;15.57;;
50012;SDS011;35901;48.694;9.476;2024-01-15T01:25:17;34.33;;;16.47;;
50012;SDS011;35901;48.694;9.476;2024-01-15T01:27:42;30.83;;;15.90;;
50012;SDS011;35901;48.694;9.476;2024-01-15T01:30:08;29.93;;;14.77;;
50012;SDS011;35901;48.694;9.476;2024-01-15T01:32:34;29.10;;;15.37;;
50012;SDS011;35901;48.694;9.476;2024-01-15T01:35:00;27.50;;;14.47;;
50012;SDS011;35901;48.694;9.476;2024-01-15T01:37:26;28.70;;;14.63;;
50012;SDS011;35901;48.694;9.476;2024-01-15T01:39:52;29.27;;;15.10;;
50012;SDS011;35901;48.694;9.476;2024-01-15T01:42:17;26.50;;;14.10;;
50012;SDS011;35901;48.694;9.476;2024-01-15T01:44:43;27.77;;;13.17;;
50012;SDS011;35901;48.694;9.476;2024-01-15T01:47:08;24.23;;;11.93;;
50012;SDS011;35901;48.694;9.476;2024-01-15T01:49:34;27.50;;;12.77;;
50012;SDS011;35901;48.694;9.476;2024-01-15T01:52:01;21.23;;;11.47;;
50012;SDS011;35901;48.694;9.476;2024-01-15T01:54:31;18.60;;;10.33;;
50012;SDS011;35901;48.694;9.476;2024-01-15T01:56:58;21.57;;;10.90;;
50012;SDS011;35901;48.694;9.476;2024-01-15T01:59:24;18.70;;;10.33;;
50012;SDS011;35901;48.694;9.476;2024-01-15T02:01:52;20.53;;;10.97;;
50012;SDS011;35901;48.694;9.476;2024-01-15T02:04:19;20.40;;;10.50;;
50012;SDS011;35901;48.694;9.476;2024-01-15T02:06:47;18.30;;;9.87;;
50012;SDS011;35901;48.694;9.476;2024-01-15T02:09:13;18.60;;;9.67;;
50012;SDS011;35901;48.694;9.476;2024-01-15T02:11:40;17.67;;;9.20;;
50012;SDS011;35901;48.694;9.476;2024-01-15T02:14:07;19.53;;;10.47;;
50012;SDS011;35901;48.694;9.476;2024-01-15T02:16:34;18.90;;;10.53;;
50012;SDS011;35901;48.694;9.476;2024-01-15T02:19:00;19.53;;;10.20;;
50012;SDS011;35901;48.694;9.476;2024-01-15T02:21:25;14.90;;;9.23;;
50012;SDS011;35901;48.694;9.476;2024-01-15T02:23:53;18.23;;;10.13;;
50012;SDS011;35901;48.694;9.476;2024-01-15T02:26:20;19.73;;;10.73;;
50012;SDS011;35901;48.694;9.476;2024-01-15T02:28:46;18.03;;;10.03;;
50012;SDS011;35901;48.694;9.476;2024-01-15T02:31:13;17.97;;;9.60;;
50012;SDS011;35901;48.694;9.476;2024-01-15T02:33:38;18.23;;;9.87;;
50012;SDS011;35901;48.694;9.476;2024-01-15T02:36:04;19.03;;;10.27;;
50012;SDS011;35901;48.694;9.476;2024-01-15T02:38:30;17.43;;;9.70;;
50012;SDS011;35901;48.694;9.476;2024-01-15T02:40:56;18.73;;;9.63;;
50012;SDS011;35901;48.694;9.476;2024-01-15T02:43:22;20.10;;;9.90;;
50012;SDS011;35901;48.694;9.476;2024-01-15T02:45:47;17.87;;;9.27;;
50012;SDS011;35901;48.694;9.476;2024-01-15T02:48:13;18.10;;;9.90;;
50012;SDS011;35901;48.694;9.476;2024-01-15T02:50:39;20.23;;;9.03;;
50012;SDS011;35901;48.694;9.476;2024-01-15T02:53:04;17.97;;;10.53;;
50012;SDS011;35901;48.694;9.476;2024-01-15T02:55:30;17.57;;;9.67;;
50012;SDS011;35901;48.694;9.476;2024-01-15T02:57:56;14.23;;;7.97;;
50012;SDS011;35901;48.694;9.476;2024-01-15T03:00:21;17.90;;;9.20;;
50012;SDS011;35901;48.694;9.476;2024-01-15T03:02:47;18.60;;;9.77;;
50012;SDS011;35901;48.694;9.476;2024-01-15T03:05:15;18.43;;;8.87;;
50012;SDS011;35901;48.694;9.476;2024-01-15T03:07:41;16.10;;;9.03;;
50012;SDS011;35901;48.694;9.476;2024-01-15T03:10:07;16.57;;;8.87;;
50012;SDS011;35901;48.694;9.476;2024-01-15T03:12:33;16.93;;;9.33;;
50012;SDS011;35901;48.694;9.476;2024-01-15T03:14:59;16.13;;;9.13;;
50012;SDS011;35901;48.694;9.476;2024-01-15T03:17:25;16.77;;;10.03;;
50012;SDS011;35901;48.694;9.476;2024-01-15T03:19:50;15.07;;;8.77;;
50012;SDS011;35901;48.694;9.476;2024-01-15T03:22:16;19.97;;;9.87;;
50012;SDS011;35901;48.694;9.476;2024-01-15T03:24:43;16.43;;;8.50;;
50012;SDS011;35901;48.694;9.476;2024-01-15T03:27:09;15.63;;;9.47;;
50012;SDS011;35901;48.694;9.476;2024-01-15T03:29:34;16.37;;;9.30;;
50012;SDS011;35901;48.694;9.476;2024-01-15T03:32:00;16.00;;;9.17;;
50012;SDS011;35901;48.694;9.476;2024-01-15T03:34:26;16.07;;;9.17;;
50012;SDS011;35901;48.694;9.476;2024-01-15T03:36:51;16.93;;;8.87;;
50012;SDS011;35901;48.694;9.476;2024-01-15T03:39:17;12.67;;;8.10;;
50012;SDS011;35901;48.694;9.476;2024-01-15T03:41:42;19.13;;;9.77;;
50012;SDS011;35901;48.694;9.476;2024-01-15T03:44:08;19.47;;;9.27;;
50012;SDS011;35901;48.694;9.476;2024-01-15T03:46:34;17.87;;;9.73;;
50012;SDS011;35901;48.694;9.476;2024-01-15T03:48:59;17.07;;;8.43;;
50012;SDS011;35901;48.694;9.476;2024-01-15T03:51:25;17.80;;;9.27;;
50012;SDS011;35901;48.694;9.476;2024-01-15T03:53:51;16.83;;;8.30;;
50012;SDS011;35901;48.694;9.476;2024-01-15T03:56:16;16.97;;;9.47;;
50012;SDS011;35901;48.694;9.476;2024-01-15T03:58:42;17.20;;;9.43;;
50012;SDS011;35901;48.694;9.476;2024-01-15T04:01:08;19.93;;;9.67;;
50012;SDS011;35901;48.694;9.476;2024-01-15T04:03:35;19.43;;;9.90;;
50012;SDS011;35901;48.694;9.476;2024-01-15T04:06:00;19.37;;;10.00;;
50012;SDS011;35901;48.694;9.476;2024-01-15T04:08:26;16.73;;;9.07;;
50012;SDS011;35901;48.694;9.476;2024-01-15T04:10:52;17.00;;;8.97;;
50012;SDS011;35901;48.694;9.476;2024-01-15T04:13:17;15.63;;;8.70;;
50012;SDS011;35901;48.694;9.476;2024-01-15T04:15:43;15.93;;;9.20;;
50012;SDS011;35901;48.694;9.476;2024-01-15T04:18:09;18.30;;;9.57;;
50012;SDS011;35901;48.694;9.476;2024-01-15T04:20:35;20.73;;;10.13;;
50012;SDS011;35901;48.694;9.476;2024-01-15T04:23:00;17.63;;;8.90;;
50012;SDS011;35901;48.694;9.476;2024-01-15T04:25:26;16.53;;;8.80;;
50012;SDS011;35901;48.694;9.476;2024-01-15T04:27:51;17.13;;;9.77;;
50012;SDS011;35901;48.694;9.476;2024-01-15T04:30:17;18.07;;;9.37;;
50012;SDS011;35901;48.694;9.476;2024-01-15T04:32:43;16.80;;;8.73;;
50012;SDS011;35901;48.694;9.476;2024-01-15T04:35:08;18.47;;;10.13;;
50012;SDS011;35901;48.694;9.476;2024-01-15T04:37:34;17.47;;;9.30;;
50012;SDS011;35901;48.694;9.476;2024-01-15T04:40:00;19.37;;;9.53;;
50012;SDS011;35901;48.694;9.476;2024-01-15T04:42:25;17.20;;;9.50;;
50012;SDS011;35901;48.694;9.476;2024-01-15T04:44:51;17.70;;;8.97;;
50012;SDS011;35901;48.694;9.476;2024-01-15T04:47:17;15.63;;;8.97;;
50012;SDS011;35901;48.694;9.476;2024-01-15T04:49:42;16.93;;;9.20;;
50012;SDS011;35901;48.694;9.476;2024-01-15T04:52:08;16.00;;;8.40;;
50012;SDS011;35901;48.694;9.476;2024-01-15T04:54:35;13.73;;;7.83;;
50012;SDS011;35901;48.694;9.476;2024-01-15T04:57:01;19.17;;;9.30;;
50012;SDS011;35901;48.694;9.476;2024-01-15T04:59:27;16.03;;;8.37;;
50012;SDS011;35901;48.694;9.476;2024-01-15T05:01:53;14.97;;;8.30;;
50012;SDS011;35901;48.694;9.476;2024-01-15T05:04:20;15.47;;;8.57;;
50012;SDS011;35901;48.694;9.476;2024-01-15T05:06:45;17.47;;;9.03;;
50012;SDS011;35901;48.694;9.476;2024-01-15T05:09:11;14.67;;;8.13;;
50012;SDS011;35901;48.694;9.476;2024-01-15T05:11:38;17.87;;;8.83;;
50012;SDS011;35901;48.694;9.476;2024-01-15T05:14:04;15.27;;;8.00;;
50012;SDS011;35901;48.694;9.476;2024-01-15T05:16:30;16.43;;;8.53;;
50012;SDS011;35901;48.694;9.476;2024-01-15T05:18:55;15.40;;;8.70;;
50012;SDS011;35901;48.694;9.476;2024-01-15T05:21:21;19.10;;;9.67;;
50012;SDS011;35901;48.694;9.476;2024-01-15T05:23:46;18.13;;;9.03;;
50012;SDS011;35901;48.694;9.476;2024-01-15T05:26:12;16.47;;;8.90;;
50012;SDS011;35901;48.694;9.476;2024-01-15T05:28:38;15.03;;;8.67;;
50012;SDS011;35901;48.694;9.476;2024-01-15T05:31:05;17.67;;;9.40;;
50012;SDS011;35901;48.694;9.476;2024-01-15T05:33:31;18.37;;;9.47;;
50012;SDS011;35901;48.694;9.476;2024-01-15T05:35:57;17.37;;;9.47;;
50012;SDS011;35901;48.694;9.476;2024-01-15T05:38:24;17.50;;;9.20;;
50012;SDS011;35901;48.694;9.476;2024-01-15T05:40:49;18.50;;;9.73;;
50012;SDS011;35901;48.694;9.476;2024-01-15T05:43:15;17.50;;;9.57;;
50012;SDS011;35901;48.694;9.476;2024-01-15T05:45:42;18.50;;;9.70;;
50012;SDS011;35901;48.694;9.476;2024-01-15T05:48:09;17.77;;;9.87;;
50012;SDS011;35901;48.694;9.476;2024-01-15T05:50:34;19.23;;;10.30;;
50012;SDS011;35901;48.694;9.476;2024-01-15T05:53:00;20.63;;;10.33;;
50012;SDS011;35901;48.694;9.476;2024-01-15T05:55:25;18.43;;;10.20;;
50012;SDS011;35901;48.694;9.476;2024-01-15T05:57:51;18.03;;;9.10;;
50012;SDS011;35901;48.694;9.476;2024-01-15T06:00:17;17.77;;;9.83;;
50012;SDS011;35901;48.694;9.476;2024-01-15T06:02:42;19.00;;;10.03;;
50012;SDS011;35901;48.694;9.476;2024-01-15T06:05:08;19.17;;;10.97;;
50012;SDS011;35901;48.694;9.476;2024-01-15T06:07:34;18.90;;;10.03;;
50012;SDS011;35901;48.694;9.476;2024-01-15T06:10:00;17.83;;;10.20;;
50012;SDS011;35901;48.694;9.476;2024-01-15T06:12:27;16.83;;;9.17;;
50012;SDS011;35901;48.694;9.476;2024-01-15T06:14:53;18.97;;;9.90;;
50012;SDS011;35901;48.694;9.476;2024-01-15T06:17:18;17.40;;;10.00;;
50012;SDS011;35901;48.694;9.476;2024-01-15T06:19:44;16.37;;;9.67;;
50012;SDS011;35901;48.694;9.476;2024-01-15T06:22:11;15.80;;;8.13;;
50012;SDS011;35901;48.694;9.476;2024-01-15T06:24:36;19.73;;;9.87;;
50012;SDS011;35901;48.694;9.476;2024-01-15T06:27:02;18.17;;;9.70;;
50012;SDS011;35901;48.694;9.476;2024-01-15T06:29:28;18.33;;;11.07;;
50012;SDS011;35901;48.694;9.476;2024-01-15T06:31:53;14.07;;;8.90;;
50012;SDS011;35901;48.694;9.476;2024-01-15T06:34:19;16.03;;;9.23;;
50012;SDS011;35901;48.694;9.476;2024-01-15T06:36:45;15.17;;;9.40;;
50012;SDS011;35901;48.694;9.476;2024-01-15T06:39:11;17.43;;;10.20;;
50012;SDS011;35901;48.694;9.476;2024-01-15T06:41:37;16.03;;;9.43;;
50012;SDS011;35901;48.694;9.476;2024-01-15T06:44:08;16.10;;;9.57;;
50012;SDS011;35901;48.694;9.476;2024-01-15T06:46:37;17.50;;;9.73;;
50012;SDS011;35901;48.694;9.476;2024-01-15T06:49:07;16.37;;;8.90;;
50012;SDS011;35901;48.694;9.476;2024-01-15T06:51:33;16.23;;;9.03;;
50012;SDS011;35901;48.694;9.476;2024-01-15T06:53:59;15.00;;;8.93;;
50012;SDS011;35901;48.694;9.476;2024-01-15T06:56:24;14.77;;;8.33;;
50012;SDS011;35901;48.694;9.476;2024-01-15T06:58:50;16.70;;;9.17;;
50012;SDS011;35901;48.694;9.476;2024-01-15T07:01:15;14.87;;;9.30;;
50012;SDS011;35901;48.694;9.476;2024-01-15T07:03:41;15.30;;;9.23;;
50012;SDS011;35901;48.694;9.476;2024-01-15T07:06:07;14.40;;;8.80;;
50012;SDS011;35901;48.694;9.476;2024-01-15T07:08:32;16.97;;;9.67;;
50012;SDS011;35901;48.694;9.476;2024-01-15T07:10:58;16.67;;;8.53;;
50012;SDS011;35901;48.694;9.476;2024-01-15T07:13:24;15.70;;;9.20;;
50012;SDS011;35901;48.694;9.476;2024-01-15T07:15:49;15.70;;;9.37;;
50012;SDS011;35901;48.694;9.476;2024-01-15T07:18:15;14.77;;;9.00;;
50012;SDS011;35901;48.694;9.476;2024-01-15T07:20:41;15.90;;;9.70;;
50012;SDS011;35901;48.694;9.476;2024-01-15T07:23:07;13.33;;;9.00;;
50012;SDS011;35901;48.694;9.476;2024-01-15T07:25:32;15.53;;;8.53;;
50012;SDS011;35901;48.694;9.476;2024-01-15T07:27:58;13.83;;;8.50;;
50012;SDS011;35901;48.694;9.476;2024-01-15T07:30:24;14.13;;;7.93;;
50012;SDS011;35901;48.694;9.476;2024-01-15T07:32:49;15.07;;;8.93;;
50012;SDS011;35901;48.694;9.476;2024-01-15T07:35:16;13.63;;;8.53;;
50012;SDS011;35901;48.694;9.476;2024-01-15T07:37:42;14.77;;;8.93;;
50012;SDS011;35901;48.694;9.476;2024-01-15T07:40:07;14.67;;;8.30;;
50012;SDS011;35901;48.694;9.476;2024-01-15T07:42:34;13.33;;;8.20;;
50012;SDS011;35901;48.694;9.476;2024-01-15T07:45:00;15.20;;;8.70;;
50012;SDS011;35901;48.694;9.476;2024-01-15T07:47:26;17.33;;;9.07;;
50012;SDS011;35901;48.694;9.476;2024-01-15T07:49:52;13.57;;;8.00;;
50012;SDS011;35901;48.694;9.476;2024-01-15T07:52:18;15.20;;;9.07;;
50012;SDS011;35901;48.694;9.476;2024-01-15T07:54:44;15.73;;;8.67;;
50012;SDS011;35901;48.694;9.476;2024-01-15T07:57:10;13.20;;;8.30;;
50012;SDS011;35901;48.694;9.476;2024-01-15T07:59:35;13.70;;;7.93;;
50012;SDS011;35901;48.694;9.476;2024-01-15T08:02:01;14.13;;;8.20;;
50012;SDS011;35901;48.694;9.476;2024-01-15T08:04:27;13.77;;;8.07;;
50012;SDS011;35901;48.694;9.476;2024-01-15T08:06:52;13.40;;;8.20;;
50012;SDS011;35901;48.694;9.476;2024-01-15T08:09:18;16.23;;;9.23;;
50012;SDS011;35901;48.694;9.476;2024-01-15T08:11:44;13.93;;;8.00;;
50012;SDS011;35901;48.694;9.476;2024-01-15T08:14:09;12.70;;;7.90;;
50012;SDS011;35901;48.694;9.476;2024-01-15T08:16:36;14.33;;;8.13;;
50012;SDS011;35901;48.694;9.476;2024-01-15T08:19:02;13.47;;;7.93;;
50012;SDS011;35901;48.694;9.476;2024-01-15T08:21:28;12.97;;;7.27;;
50012;SDS011;35901;48.694;9.476;2024-01-15T08:24:00;15.17;;;8.27;;
50012;SDS011;35901;48.694;9.476;2024-01-15T08:26:29;14.63;;;8.17;;
50012;SDS011;35901;48.694;9.476;2024-01-15T08:28:55;14.50;;;8.00;;
50012;SDS011;35901;48.694;9.476;2024-01-15T08:31:21;14.20;;;9.23;;
50012;SDS011;35901;48.694;9.476;2024-01-15T08:33:47;15.57;;;7.97;;
50012;SDS011;35901;48.694;9.476;2024-01-15T08:36:13;16.83;;;9.03;;
50012;SDS011;35901;48.694;9.476;2024-01-15T08:38:38;14.20;;;8.70;;
50012;SDS011;35901;48.694;9.476;2024-01-15T08:41:04;16.07;;;9.03;;
50012;SDS011;35901;48.694;9.476;2024-01-15T08:43:30;18.13;;;9.63;;
50012;SDS011;35901;48.694;9.476;2024-01-15T08:45:56;17.73;;;9.63;;
50012;SDS011;35901;48.694;9.476;2024-01-15T08:48:23;14.67;;;9.17;;
50012;SDS011;35901;48.694;9.476;2024-01-15T08:50:51;17.93;;;10.10;;
50012;SDS011;35901;48.694;9.476;2024-01-15T08:53:16;14.17;;;8.80;;
50012;SDS011;35901;48.694;9.476;2024-01-15T08:55:42;14.33;;;9.23;;
50012;SDS011;35901;48.694;9.476;2024-01-15T08:58:09;12.60;;;8.23;;
50012;SDS011;35901;48.694;9.476;2024-01-15T09:00:34;13.30;;;7.80;;
50012;SDS011;35901;48.694;9.476;2024-01-15T09:03:00;11.30;;;7.30;;
50012;SDS011;35901;48.694;9.476;2024-01-15T09:05:26;12.87;;;7.70;;
50012;SDS011;35901;48.694;9.476;2024-01-15T09:07:59;12.47;;;6.70;;
50012;SDS011;35901;48.694;9.476;2024-01-15T09:10:24;11.70;;;7.77;;
50012;SDS011;35901;48.694;9.476;2024-01-15T09:12:50;12.93;;;6.97;;
50012;SDS011;35901;48.694;9.476;2024-01-15T09:15:17;12.73;;;7.17;;
50012;SDS011;35901;48.694;9.476;2024-01-15T09:17:53;11.23;;;6.70;;
50012;SDS011;35901;48.694;9.476;2024-01-15T09:20:36;12.47;;;7.07;;
50012;SDS011;35901;48.694;9.476;2024-01-15T09:23:03;10.93;;;6.77;;
50012;SDS011;35901;48.694;9.476;2024-01-15T09:25:29;12.17;;;7.30;;
50012;SDS011;35901;48.694;9.476;2024-01-15T09:27:54;14.50;;;7.20;;
50012;SDS011;35901;48.694;9.476;2024-01-15T09:30:20;13.93;;;6.60;;
50012;SDS011;35901;48.694;9.476;2024-01-15T09:32:46;10.77;;;6.47;;
50012;SDS011;35901;48.694;9.476;2024-01-15T09:35:11;11.40;;;5.33;;
50012;SDS011;35901;48.694;9.476;2024-01-15T09:37:39;8.37;;;5.90;;
50012;SDS011;35901;48.694;9.476;2024-01-15T09:40:05;9.27;;;5.53;;
50012;SDS011;35901;48.694;9.476;2024-01-15T09:42:33;9.53;;;5.40;;
50012;SDS011;35901;48.694;9.476;2024-01-15T09:45:00;7.23;;;5.03;;
50012;SDS011;35901;48.694;9.476;2024-01-15T09:47:28;8.43;;;5.17;;
50012;SDS011;35901;48.694;9.476;2024-01-15T09:49:54;11.73;;;6.07;;
50012;SDS011;35901;48.694;9.476;2024-01-15T09:52:27;8.00;;;5.00;;
50012;SDS011;35901;48.694;9.476;2024-01-15T09:54:52;7.90;;;5.13;;
50012;SDS011;35901;48.694;9.476;2024-01-15T09:57:19;7.27;;;4.60;;
50012;SDS011;35901;48.694;9.476;2024-01-15T09:59:45;8.57;;;4.60;;
50012;SDS011;35901;48.694;9.476;2024-01-15T10:02:12;6.90;;;4.47;;
50012;SDS011;35901;48.694;9.476;2024-01-15T10:04:42;7.03;;;5.00;;
50012;SDS011;35901;48.694;9.476;2024-01-15T10:07:08;8.10;;;4.77;;
50012;SDS011;35901;48.694;9.476;2024-01-15T10:09:35;6.87;;;4.50;;
50012;SDS011;35901;48.694;9.476;2024-01-15T10:12:01;7.63;;;4.63;;
50012;SDS011;35901;48.694;9.476;2024-01-15T10:14:30;6.90;;;5.17;;
50012;SDS011;35901;48.694;9.476;2024-01-15T10:16:57;6.80;;;4.60;;
50012;SDS011;35901;48.694;9.476;2024-01-15T10:19:23;7.63;;;4.87;;
50012;SDS011;35901;48.694;9.476;2024-01-15T10:21:49;8.57;;;4.63;;
50012;SDS011;35901;48.694;9.476;2024-01-15T10:24:14;9.47;;;4.70;;
50012;SDS011;35901;48.694;9.476;2024-01-15T10:26:40;9.43;;;5.60;;
50012;SDS011;35901;48.694;9.476;2024-01-15T10:29:06;6.40;;;4.50;;
50012;SDS011;35901;48.694;9.476;2024-01-15T10:31:31;11.73;;;5.00;;
50012;SDS011;35901;48.694;9.476;2024-01-15T10:34:09;10.63;;;5.23;;
50012;SDS011;35901;48.694;9.476;2024-01-15T10:36:38;10.40;;;4.50;;
50012;SDS011;35901;48.694;9.476;2024-01-15T10:39:06;6.10;;;4.20;;
50012;SDS011;35901;48.694;9.476;2024-01-15T10:41:32;6.10;;;4.17;;
50012;SDS011;35901;48.694;9.476;2024-01-15T10:43:58;5.97;;;3.90;;
50012;SDS011;35901;48.694;9.476;2024-01-15T10:46:24;5.00;;;3.70;;
50012;SDS011;35901;48.694;9.476;2024-01-15T10:48:50;6.30;;;4.00;;
50012;SDS011;35901;48.694;9.476;2024-01-15T10:51:16;8.20;;;4.30;;
50012;SDS011;35901;48.694;9.476;2024-01-15T10:53:43;4.77;;;3.43;;
50012;SDS011;35901;48.694;9.476;2024-01-15T10:56:10;5.20;;;3.70;;
50012;SDS011;35901;48.694;9.476;2024-01-15T10:58:39;7.97;;;3.50;;
50012;SDS011;35901;48.694;9.476;2024-01-15T11:01:06;5.40;;;3.73;;
50012;SDS011;35901;48.694;9.476;2024-01-15T11:03:32;4.80;;;3.40;;
50012;SDS011;35901;48.694;9.476;2024-01-15T11:05:59;3.87;;;3.13;;
50012;SDS011;35901;48.694;9.476;2024-01-15T11:08:25;4.53;;;3.70;;
50012;SDS011;35901;48.694;9.476;2024-01-15T11:10:51;7.83;;;3.80;;
50012;SDS011;35901;48.694;9.476;2024-01-15T11:16:05;6.23;;;4.73;;
50012;SDS011;35901;48.694;9.476;2024-01-15T11:18:34;7.13;;;4.57;;
50012;SDS011;35901;48.694;9.476;2024-01-15T11:27:39;5.87;;;3.80;;
50012;SDS011;35901;48.694;9.476;2024-01-15T11:30:09;7.50;;;3.83;;
50012;SDS011;35901;48.694;9.476;2024-01-15T11:32:36;6.17;;;3.63;;
50012;SDS011;35901;48.694;9.476;2024-01-15T11:35:02;8.20;;;3.70;;
50012;SDS011;35901;48.694;9.476;2024-01-15T11:37:29;6.97;;;4.17;;
50012;SDS011;35901;48.694;9.476;2024-01-15T11:40:36;5.33;;;3.67;;
50012;SDS011;35901;48.694;9.476;2024-01-15T11:43:03;5.07;;;3.37;;
50012;SDS011;35901;48.694;9.476;2024-01-15T11:45:30;5.77;;;3.70;;
50012;SDS011;35901;48.694;9.476;2024-01-15T11:50:35;5.37;;;3.90;;
50012;SDS011;35901;48.694;9.476;2024-01-15T11:53:15;5.17;;;3.57;;
50012;SDS011;35901;48.694;9.476;2024-01-15T11:55:57;5.03;;;3.33;;
50012;SDS011;35901;48.694;9.476;2024-01-15T11:58:25;5.63;;;3.60;;
50012;SDS011;35901;48.694;9.476;2024-01-15T12:00:51;6.47;;;4.30;;
50012;SDS011;35901;48.694;9.476;2024-01-15T12:03:17;5.03;;;4.20;;
50012;SDS011;35901;48.694;9.476;2024-01-15T12:05:51;4.97;;;3.33;;
50012;SDS011;35901;48.694;9.476;2024-01-15T12:08:21;5.27;;;3.90;;
50012;SDS011;35901;48.694;9.476;2024-01-15T12:10:50;7.63;;;4.23;;
50012;SDS011;35901;48.694;9.476;2024-01-15T12:13:16;6.43;;;4.07;;
50012;SDS011;35901;48.694;9.476;2024-01-15T12:15:43;6.97;;;4.30;;
50012;SDS011;35901;48.694;9.476;2024-01-15T12:18:11;5.23;;;3.73;;
50012;SDS011;35901;48.694;9.476;2024-01-15T12:20:37;4.67;;;3.33;;
50012;SDS011;35901;48.694;9.476;2024-01-15T12:23:05;4.77;;;3.33;;
50012;SDS011;35901;48.694;9.476;2024-01-15T12:25:51;5.40;;;3.60;;
50012;SDS011;35901;48.694;9.476;2024-01-15T12:28:17;4.40;;;3.47;;
50012;SDS011;35901;48.694;9.476;2024-01-15T12:30:46;6.97;;;4.23;;
50012;SDS011;35901;48.694;9.476;2024-01-15T12:33:14;5.50;;;4.00;;
50012;SDS011;35901;48.694;9.476;2024-01-15T12:35:39;6.03;;;4.03;;
50012;SDS011;35901;48.694;9.476;2024-01-15T12:38:05;4.87;;;3.87;;
50012;SDS011;35901;48.694;9.476;2024-01-15T12:40:31;6.10;;;4.20;;
50012;SDS011;35901;48.694;9.476;2024-01-15T12:42:59;3.83;;;3.33;;
50012;SDS011;35901;48.694;9.476;2024-01-15T12:45:25;6.30;;;4.03;;
50012;SDS011;35901;48.694;9.476;2024-01-15T12:47:52;5.13;;;4.23;;
50012;SDS011;35901;48.694;9.476;2024-01-15T12:50:18;6.00;;;4.33;;
50012;SDS011;35901;48.694;9.476;2024-01-15T12:52:44;6.23;;;4.43;;
50012;SDS011;35901;48.694;9.476;2024-01-15T12:58:57;9.20;;;4.97;;
50012;SDS011;35901;48.694;9.476;2024-01-15T13:01:24;8.77;;;6.13;;
50012;SDS011;35901;48.694;9.476;2024-01-15T13:03:49;7.20;;;5.10;;
50012;SDS011;35901;48.694;9.476;2024-01-15T13:06:15;7.80;;;5.70;;
50012;SDS011;35901;48.694;9.476;2024-01-15T13:08:41;9.83;;;6.07;;
50012;SDS011;35901;48.694;9.476;2024-01-15T13:11:07;8.63;;;6.50;;
50012;SDS011;35901;48.694;9.476;2024-01-15T13:13:32;6.60;;;5.13;;
50012;SDS011;35901;48.694;9.476;2024-01-15T13:15:59;6.30;;;4.70;;
50012;SDS011;35901;48.694;9.476;2024-01-15T13:18:25;9.53;;;6.93;;
50012;SDS011;35901;48.694;9.476;2024-01-15T13:20:51;10.00;;;6.77;;
50012;SDS011;35901;48.694;9.476;2024-01-15T13:23:16;13.00;;;7.77;;
50012;SDS011;35901;48.694;9.476;2024-01-15T13:29:29;11.13;;;6.90;;
50012;SDS011;35901;48.694;9.476;2024-01-15T13:31:57;11.90;;;7.37;;
50012;SDS011;35901;48.694;9.476;2024-01-15T13:34:24;12.30;;;7.27;;
50012;SDS011;35901;48.694;9.476;2024-01-15T13:36:49;13.80;;;8.97;;
50012;SDS011;35901;48.694;9.476;2024-01-15T13:39:15;11.47;;;8.40;;
50012;SDS011;35901;48.694;9.476;2024-01-15T13:41:45;11.77;;;7.30;;
50012;SDS011;35901;48.694;9.476;2024-01-15T13:44:13;13.67;;;8.40;;
50012;SDS011;35901;48.694;9.476;2024-01-15T13:46:39;11.37;;;6.97;;
50012;SDS011;35901;48.694;9.476;2024-01-15T13:49:05;12.83;;;8.73;;
50012;SDS011;35901;48.694;9.476;2024-01-15T13:51:34;11.60;;;8.03;;
50012;SDS011;35901;48.694;9.476;2024-01-15T13:54:01;14.67;;;9.63;;
50012;SDS011;35901;48.694;9.476;2024-01-15T14:00:16;16.50;;;11.03;;
50012;SDS011;35901;48.694;9.476;2024-01-15T14:02:45;17.90;;;12.00;;
50012;SDS011;35901;48.694;9.476;2024-01-15T14:05:11;15.90;;;11.10;;
50012;SDS011;35901;48.694;9.476;2024-01-15T14:07:45;24.43;;;14.23;;
50012;SDS011;35901;48.694;9.476;2024-01-15T14:10:14;14.33;;;9.47;;
50012;SDS011;35901;48.694;9.476;2024-01-15T14:12:40;14.43;;;10.10;;
50012;SDS011;35901;48.694;9.476;2024-01-15T14:15:06;14.77;;;10.00;;
50012;SDS011;35901;48.694;9.476;2024-01-15T14:17:32;12.60;;;8.03;;
50012;SDS011;35901;48.694;9.476;2024-01-15T14:19:58;15.43;;;8.83;;
50012;SDS011;35901;48.694;9.476;2024-01-15T14:22:24;15.17;;;9.83;;
50012;SDS011;35901;48.694;9.476;2024-01-15T14:24:50;17.37;;;10.90;;
50012;SDS011;35901;48.694;9.476;2024-01-15T14:31:04;16.37;;;9.97;;
50012;SDS011;35901;48.694;9.476;2024-01-15T14:33:49;15.50;;;9.90;;
50012;SDS011;35901;48.694;9.476;2024-01-15T14:39:36;15.97;;;10.23;;
50012;SDS011;35901;48.694;9.476;2024-01-15T14:42:01;16.07;;;10.03;;
50012;SDS011;35901;48.694;9.476;2024-01-15T14:44:27;14.77;;;9.50;;
50012;SDS011;35901;48.694;9.476;2024-01-15T14:46:57;14.37;;;9.63;;
50012;SDS011;35901;48.694;9.476;2024-01-15T14:49:23;15.90;;;8.77;;
50012;SDS011;35901;48.694;9.476;2024-01-15T14:51:49;15.57;;;9.57;;
50012;SDS011;35901;48.694;9.476;2024-01-15T14:54:15;12.70;;;8.67;;
50012;SDS011;35901;48.694;9.476;2024-01-15T14:56:41;16.23;;;9.40;;
50012;SDS011;35901;48.694;9.476;2024-01-15T15:02:26;14.23;;;8.67;;
50012;SDS011;35901;48.694;9.476;2024-01-15T15:04:53;12.27;;;8.03;;